Piqua, Kentucky
Current Conditions -  °F | °C
As of 11:15 AM on Wednesday 28 Jan 2015 (Local Time) from KFGX Reporting Station
Clear Clear  
Wind Chill: 25°   Ceiling: Unl
Heat Index: 25°   Visibility: 10mi
Dew Point: 15°   Wind: 0mph
Humidity: 65%   Direction: NA
Pressure: 30.4"   Gusts: NA
Location:  38.5189°N, 84.0521°W
Report Text: KFGX 281615Z AUTO 00000KT 10SM CLR M04/M10 A3040 RMK AO2 T10391097
Loading
Personal Weather Stations






























Interactive Weather Map New forecast layout! Learn more

10-Day Weather Forecast

Advertisements
Track Severe Weather on mobile